Decoded Metar for KTPL (TEMPLE/MILLER in TX, USA) (IATA:TPL) | Meteo·Mobile Aviation Weather
aviador You're here:

KTPL Decoded Metar

TEMPLE/MILLER in TX, USA
Report Time2019-04-23 15:51:00
UTC Time2019-04-23 16:40:31
Flight Rules vfr VFR
Wind080° at 07 kt
W.Decomp.*RWY 02: 4.2 kt HW 5.6 kt RCW
RWY 15: 1.6 kt HW 6.8 kt LCW
Visibility9999 m
Phenomena:N/A
Clouds:N/A
Expected CloudBase > 400 ft AGL from Temp-Dew spread
CeilingNone
Temp21°C (ISA +7)
Dew Point20°C (94% RH)
QNH1017 hPa
Density Alt1,716 ft
Elevation682 ft
Report Wrong Elevation
Raw Report
KTPL 231551Z AUTO 08007KT 10SM 21/20 A3004 RMK AO2 SLP178
T02060200 $=

Extra information for KTPL:More info

Metar Taf Metar & Taf Last 4 Metars F.Rules Stats Wind Profile Meteogram Temp Stats Airport Information Weather charts Add Link Nearby VenuesMetar ALERT Operation Metar Decoded Social comments

AIRNAV info for KTPL